Latest Weather Observations for Mount Moornapa

IDV60801

Issued at 7:35 pm EDT Sunday 26 October 2014 (issued every 30 minutes, with the page automatically refreshed every 10 minutes)

About weather observations | Map of weather stations | Latest weather observations for VIC | Other Formats
Station Details ID: 085296 Name: MOUNT MOORNAPA Lat: -37.75 Lon: 147.14 Height: 480.0 m
Data from the previous 72 hours. | See also: Recent months at Mount Moornapa
Date/Time
EDT
Temp
°C
App
Temp
°C
Dew
Point
Rel
Hum
%
Delta-T
°C
Wind Press
QNH
hPa
Press
MSL
hPa
Rain
since 9 am
mm
Dir
 
Spd
km/h
Gust
km/h
Spd
kts
Gust
kts
26/07:30pm 13.9 13.6 12.6 92 0.7 ENE 6 11 3 6 - - 0.0
26/07:00pm 14.8 14.5 12.8 88 1.1 E 6 7 3 4 - - 0.0
26/06:30pm 16.7 16.8 12.7 77 2.3 SE 4 6 2 3 - - 0.0
26/06:00pm 17.2 17.9 12.3 73 2.8 CALM 0 4 0 2 - - 0.0
26/05:30pm 16.8 17.1 12.3 75 2.5 SSE 2 6 1 3 - - 0.0
26/05:00pm 17.6 17.8 11.9 69 3.2 S 2 4 1 2 - - 0.0
26/04:30pm 18.8 18.9 12.8 68 3.4 SSW 4 7 2 4 - - 0.0
26/04:00pm 17.8 17.7 12.0 69 3.3 SW 4 7 2 4 - - 0.0
26/03:30pm 17.3 17.2 12.0 71 3.0 SW 4 9 2 5 - - 0.0
26/03:00pm 17.5 17.6 12.8 74 2.7 S 4 9 2 5 - - 0.0
26/02:30pm 16.0 16.2 11.8 76 2.3 SE 2 6 1 3 - - 0.0
26/02:00pm 16.2 16.6 12.4 78 2.1 SSW 2 6 1 3 - - 0.0
26/01:30pm 15.2 14.8 11.2 77 2.2 W 4 6 2 3 - - 0.0
26/01:00pm 14.4 13.9 10.8 79 1.9 SSW 4 6 2 3 - - 0.0
26/12:30pm 14.7 15.0 12.2 85 1.4 S 2 6 1 3 - - 0.0
26/12:00pm 14.1 14.3 12.0 87 1.2 SSW 2 6 1 3 - - 0.0
26/11:30am 13.7 13.6 12.1 90 0.9 SSW 4 9 2 5 - - 0.0
26/11:00am 13.5 13.8 12.1 91 0.8 S 2 6 1 3 - - 0.0
26/10:30am 13.2 13.5 12.1 93 0.6 S 2 4 1 2 - - 0.0
26/10:00am 12.7 13.3 11.9 95 0.4 CALM 0 0 0 0 - - 0.0
26/09:30am 12.3 13.0 12.3 100 0.0 CALM 0 2 0 1 - - 0.0
26/09:00am 11.9 12.5 11.9 100 0.0 CALM 0 4 0 2 - - 0.4
26/08:30am 11.6 12.1 11.6 100 0.0 CALM 0 0 0 0 - - 0.4
26/08:00am 11.1 11.5 11.1 100 0.0 CALM 0 0 0 0 - - 0.4
26/07:30am 11.1 11.5 11.1 100 0.0 CALM 0 2 0 1 - - 0.4
26/07:00am 11.0 11.3 11.0 100 0.0 CALM 0 4 0 2 - - 0.4
26/06:30am 11.1 11.5 11.1 100 0.0 CALM 0 0 0 0 - - 0.4
26/06:00am 11.0 11.3 11.0 100 0.0 CALM 0 2 0 1 - - 0.4
26/05:30am 11.1 11.1 11.1 100 0.0 ENE 2 4 1 2 - - 0.4
26/05:00am 11.0 11.3 11.0 100 0.0 CALM 0 2 0 1 - - 0.4
26/04:30am 11.0 11.3 11.0 100 0.0 CALM 0 4 0 2 - - 0.4
26/04:00am 11.1 11.5 11.1 100 0.0 CALM 0 2 0 1 - - 0.4
26/03:30am 11.1 10.7 11.1 100 0.0 E 4 6 2 3 - - 0.4
26/03:00am 11.2 11.2 11.2 100 0.0 E 2 6 1 3 - - 0.4
26/02:30am 11.1 11.1 11.1 100 0.0 NE 2 6 1 3 - - 0.4
26/02:00am 11.1 10.7 11.1 100 0.0 E 4 6 2 3 - - 0.4
26/01:30am 11.2 11.6 11.2 100 0.0 CALM 0 4 0 2 - - 0.2
26/01:00am 11.0 11.0 11.0 100 0.0 ESE 2 6 1 3 - - 0.2
26/12:30am 11.1 11.1 11.1 100 0.0 E 2 4 1 2 - - 0.2
26/12:00am 11.1 11.5 11.1 100 0.0 NE 0 6 0 3 - - 0.2
 
Date/Time
EDT
Temp
°C
App
Temp
°C
Dew
Point
Rel
Hum
%
Delta-T
°C
Wind Press
QNH
hPa
Press
MSL
hPa
Rain
since 9 am
mm
Dir
 
Spd
km/h
Gust
km/h
Spd
kts
Gust
kts
25/11:30pm 11.1 10.7 11.1 100 0.0 E 4 7 2 4 - - 0.2
25/11:00pm 11.0 10.2 11.0 100 0.0 E 6 11 3 6 - - 0.2
25/10:30pm 11.0 10.2 11.0 100 0.0 E 6 9 3 5 - - 0.2
25/10:00pm 11.1 10.7 11.1 100 0.0 E 4 7 2 4 - - 0.2
25/09:30pm 11.2 10.8 11.2 100 0.0 ESE 4 7 2 4 - - 0.2
25/09:00pm 11.3 11.3 11.3 100 0.0 ESE 2 6 1 3 - - 0.2
25/08:30pm 11.3 10.4 11.3 100 0.0 ESE 7 15 4 8 - - 0.2
25/08:00pm 11.5 10.6 11.5 100 0.0 ESE 7 13 4 7 - - 0.2
25/07:30pm 11.6 10.8 11.6 100 0.0 ESE 7 15 4 8 - - 0.2
25/07:00pm 11.9 11.1 11.7 99 0.1 ESE 7 13 4 7 - - 0.2
25/06:30pm 12.3 11.7 11.8 97 0.3 ESE 6 13 3 7 - - 0.2
25/06:00pm 12.8 12.7 12.2 96 0.3 ESE 4 7 2 4 - - 0.2
25/05:30pm 13.3 13.3 12.4 94 0.5 SE 4 7 2 4 - - 0.2
25/05:00pm 13.4 13.1 12.6 95 0.4 ESE 6 9 3 5 - - 0.2
25/04:30pm 13.6 13.8 13.0 96 0.3 SE 4 6 2 3 - - 0.2
25/04:00pm 13.8 14.0 12.9 94 0.5 SE 4 7 2 4 - - 0.2
25/03:30pm 14.2 14.8 13.2 94 0.6 SE 2 4 1 2 - - 0.2
25/03:00pm 13.9 13.7 13.1 95 0.5 SSE 6 9 3 5 - - 0.2
25/02:30pm 14.3 15.0 13.3 94 0.6 SE 2 6 1 3 - - 0.2
25/02:00pm 14.1 14.9 13.6 97 0.3 SE 2 6 1 3 - - 0.2
25/01:30pm 13.5 14.2 13.5 100 0.0 SE 2 4 1 2 - - 0.2
25/01:00pm 13.2 13.8 13.2 100 0.0 ESE 2 6 1 3 - - 0.2
25/12:30pm 12.8 13.7 12.8 100 0.0 CALM 0 4 0 2 - - 0.2
25/12:00pm 12.8 12.9 12.8 100 0.0 SE 4 7 2 4 - - 0.2
25/11:30am 12.7 13.2 12.7 100 0.0 SSE 2 4 1 2 - - 0.2
25/11:00am 12.3 13.0 12.3 100 0.0 CALM 0 0 0 0 - - 0.0
25/10:30am 12.3 12.6 12.3 100 0.0 SE 2 6 1 3 - - 0.0
25/10:00am 12.0 11.9 12.0 100 0.0 SE 4 7 2 4 - - 0.0
25/09:30am 11.8 11.6 11.8 100 0.0 SSE 4 7 2 4 - - 0.0
25/09:00am 11.5 11.2 11.5 100 0.0 SSE 4 6 2 3 - - 0.4
25/08:30am 11.4 11.5 11.4 100 0.0 SE 2 6 1 3 - - 0.4
25/08:00am 11.6 11.7 11.6 100 0.0 SSE 2 6 1 3 - - 0.4
25/07:30am 11.2 11.6 11.2 100 0.0 CALM 0 0 0 0 - - 0.4
25/07:00am 11.3 11.0 11.3 100 0.0 SSE 4 7 2 4 - - 0.2
25/06:30am 11.2 10.8 11.2 100 0.0 S 4 7 2 4 - - 0.2
25/06:00am 11.4 10.7 11.4 100 0.0 SSE 6 7 3 4 - - 0.0
25/05:30am 11.3 10.6 11.3 100 0.0 S 6 7 3 4 - - 0.0
25/05:00am 11.4 10.5 11.4 100 0.0 S 7 11 4 6 - - 0.0
25/04:30am 11.5 10.6 11.5 100 0.0 S 7 11 4 6 - - 0.0
25/04:00am 11.7 10.5 11.7 100 0.0 SSE 9 15 5 8 - - 0.0
25/03:30am 12.5 12.0 12.5 100 0.0 SSE 7 9 4 5 - - 0.0
25/03:00am 13.1 13.7 13.1 100 0.0 ESE 2 6 1 3 - - 0.0
25/02:30am 13.2 13.1 13.2 100 0.0 SE 6 7 3 4 - - 0.0
25/02:00am 13.3 13.6 13.3 100 0.0 E 4 7 2 4 - - 0.0
25/01:30am 13.6 13.9 13.4 99 0.1 E 4 6 2 3 - - 0.0
25/01:00am 13.9 14.3 13.7 99 0.1 SSE 4 7 2 4 - - 0.0
25/12:30am 14.4 14.5 13.9 97 0.3 S 6 7 3 4 - - 0.0
25/12:00am 15.2 15.8 14.2 94 0.6 SSE 4 7 2 4 - - 0.0
 
Date/Time
EDT
Temp
°C
App
Temp
°C
Dew
Point
Rel
Hum
%
Delta-T
°C
Wind Press
QNH
hPa
Press
MSL
hPa
Rain
since 9 am
mm
Dir
 
Spd
km/h
Gust
km/h
Spd
kts
Gust
kts
24/11:30pm 15.9 16.6 14.4 91 0.9 SSE 4 7 2 4 - - 0.0
24/11:00pm 16.6 16.7 14.4 87 1.3 SSE 7 11 4 6 - - 0.0
24/10:30pm 17.3 16.9 14.2 82 1.8 SE 9 15 5 8 - - 0.0
24/10:00pm 18.3 19.2 16.6 90 1.0 SE 7 11 4 6 - - 0.0
24/09:30pm 20.9 21.9 16.3 75 2.8 SW 6 11 3 6 - - 0.0
24/09:00pm 21.0 22.9 16.6 76 2.7 SSW 2 9 1 5 - - 0.0
24/08:30pm 21.3 23.4 17.1 77 2.6 SE 2 4 1 2 - - 0.0
24/08:00pm 21.5 23.2 16.2 72 3.3 S 2 7 1 4 - - 0.0
24/07:30pm 21.8 23.2 16.3 71 3.4 S 4 4 2 2 - - 0.0
24/07:00pm 22.7 24.5 16.5 68 3.9 ESE 2 4 1 2 - - 0.0
24/06:30pm 23.7 26.0 16.7 65 4.4 CALM 0 6 0 3 - - 0.0
24/06:00pm 23.8 25.6 17.3 67 4.1 SSE 4 6 2 3 - - 0.0
24/05:30pm 24.0 26.4 18.0 69 3.8 SSE 2 6 1 3 - - 0.0
24/05:00pm 23.8 25.5 18.0 70 3.7 S 6 7 3 4 - - 0.0
24/04:30pm 22.8 24.3 17.7 73 3.2 S 6 9 3 5 - - 0.0
24/04:00pm 24.2 26.0 18.2 69 3.8 S 6 11 3 6 - - 0.0
24/03:30pm 24.9 26.4 17.6 64 4.7 S 6 9 3 5 - - 0.0
24/03:00pm 24.9 27.0 17.1 62 4.9 S 2 7 1 4 - - 0.0
24/02:30pm 25.0 26.8 18.4 66 4.3 S 6 7 3 4 - - 0.0
24/02:00pm 26.2 28.6 18.9 64 4.8 S 4 7 2 4 - - 0.0
24/01:30pm 25.2 27.4 19.3 70 3.9 S 6 9 3 5 - - 0.0
24/01:00pm 23.5 25.2 18.4 73 3.3 S 7 11 4 6 - - 0.0
24/12:30pm 23.2 25.3 18.9 77 2.8 S 6 13 3 7 - - 0.0
24/12:00pm 23.0 25.4 18.7 77 2.8 S 4 7 2 4 - - 0.0
24/11:30am 23.1 25.7 18.4 75 3.0 ESE 2 6 1 3 - - 0.0
24/11:00am 24.4 26.7 18.6 70 3.7 NNE 4 9 2 5 - - 0.0
24/10:30am 22.0 23.1 16.7 72 3.3 NNE 6 11 3 6 - - 0.0
24/10:00am 19.3 20.1 15.8 80 2.1 N 6 11 3 6 - - 0.0
24/09:30am 18.0 19.0 15.3 84 1.6 N 4 7 2 4 - - 0.0
24/09:00am 15.7 16.8 14.7 94 0.6 NNW 2 6 1 3 - - 2.4
24/08:30am 14.6 16.1 14.6 100 0.0 CALM 0 0 0 0 - - 2.4
24/08:00am 13.8 14.6 13.8 100 0.0 N 2 4 1 2 - - 2.4
24/07:30am 13.3 14.3 13.3 100 0.0 CALM 0 0 0 0 - - 2.4
24/07:00am 13.0 13.9 13.0 100 0.0 CALM 0 0 0 0 - - 2.4
24/06:30am 13.0 13.6 13.0 100 0.0 NE 2 6 1 3 - - 2.4
24/06:00am 13.2 13.8 13.2 100 0.0 N 2 4 1 2 - - 2.4
24/05:30am 13.2 13.8 13.2 100 0.0 NNE 2 4 1 2 - - 2.2
24/05:00am 13.1 13.7 13.1 100 0.0 NE 2 4 1 2 - - 2.2
24/04:30am 13.1 13.7 13.1 100 0.0 E 2 7 1 4 - - 2.2
24/04:00am 13.1 13.7 13.1 100 0.0 E 2 6 1 3 - - 2.2
24/03:30am 13.1 12.9 13.1 100 0.0 E 6 11 3 6 - - 2.2
24/03:00am 13.2 13.1 13.2 100 0.0 E 6 9 3 5 - - 2.2
24/02:30am 13.2 13.4 13.2 100 0.0 E 4 7 2 4 - - 2.2
24/02:00am 13.2 13.4 13.2 100 0.0 E 4 11 2 6 - - 2.2
24/01:30am 13.2 13.1 13.2 100 0.0 E 6 11 3 6 - - 2.2
24/01:00am 13.1 12.9 13.1 100 0.0 E 6 13 3 7 - - 2.2
24/12:30am 13.1 12.7 13.1 100 0.0 E 7 17 4 9 - - 2.2
24/12:00am 13.1 12.7 13.1 100 0.0 E 7 13 4 7 - - 2.2
 
Date/Time
EDT
Temp
°C
App
Temp
°C
Dew
Point
Rel
Hum
%
Delta-T
°C
Wind Press
QNH
hPa
Press
MSL
hPa
Rain
since 9 am
mm
Dir
 
Spd
km/h
Gust
km/h
Spd
kts
Gust
kts
23/11:30pm 13.1 12.7 13.1 100 0.0 E 7 17 4 9 - - 2.2
23/11:00pm 13.1 12.7 13.1 100 0.0 E 7 13 4 7 - - 2.2
23/10:30pm 13.0 12.8 13.0 100 0.0 E 6 13 3 7 - - 2.2
23/10:00pm 13.0 12.8 13.0 100 0.0 E 6 15 3 8 - - 2.2
23/09:30pm 13.1 12.9 13.1 100 0.0 ESE 6 19 3 10 - - 2.2
23/09:00pm 13.0 12.6 13.0 100 0.0 ESE 7 20 4 11 - - 2.2
23/08:30pm 13.0 12.6 13.0 100 0.0 ESE 7 15 4 8 - - 2.0
23/08:00pm 13.0 12.2 13.0 100 0.0 ESE 9 20 5 11 - - 2.0

Other Formats:

Comma delimited format used in spreadsheet applications
http://www.bom.gov.au/fwo/IDV60801/IDV60801.95913.axf

JavaScript Object Notation format (JSON) in row-major order
http://www.bom.gov.au/fwo/IDV60801/IDV60801.95913.json